sensor_id;sensor_type;location;lat;lon;timestamp;P1;durP1;ratioP1;P2;durP2;ratioP2
54454;SDS011;40364;52.270;10.546;2023-02-18T00:00:14;8.10;;;1.20;;
54454;SDS011;40364;52.270;10.546;2023-02-18T00:02:43;3.92;;;0.93;;
54454;SDS011;40364;52.270;10.546;2023-02-18T00:05:10;10.00;;;1.45;;
54454;SDS011;40364;52.270;10.546;2023-02-18T00:07:37;4.00;;;0.82;;
54454;SDS011;40364;52.270;10.546;2023-02-18T00:10:09;4.80;;;0.80;;
54454;SDS011;40364;52.270;10.546;2023-02-18T00:12:38;6.25;;;1.40;;
54454;SDS011;40364;52.270;10.546;2023-02-18T00:15:05;0.65;;;0.30;;
54454;SDS011;40364;52.270;10.546;2023-02-18T00:17:32;5.03;;;1.13;;
54454;SDS011;40364;52.270;10.546;2023-02-18T00:19:58;8.35;;;0.90;;
54454;SDS011;40364;52.270;10.546;2023-02-18T00:22:25;6.35;;;0.73;;
54454;SDS011;40364;52.270;10.546;2023-02-18T00:24:52;7.32;;;1.10;;
54454;SDS011;40364;52.270;10.546;2023-02-18T00:27:20;7.65;;;0.98;;
54454;SDS011;40364;52.270;10.546;2023-02-18T00:29:46;7.43;;;1.75;;
54454;SDS011;40364;52.270;10.546;2023-02-18T00:32:13;3.67;;;0.70;;
54454;SDS011;40364;52.270;10.546;2023-02-18T00:34:40;8.13;;;1.58;;
54454;SDS011;40364;52.270;10.546;2023-02-18T00:37:06;4.95;;;0.65;;
54454;SDS011;40364;52.270;10.546;2023-02-18T00:39:33;5.57;;;1.10;;
54454;SDS011;40364;52.270;10.546;2023-02-18T00:42:00;4.25;;;1.02;;
54454;SDS011;40364;52.270;10.546;2023-02-18T00:44:28;6.82;;;1.40;;
54454;SDS011;40364;52.270;10.546;2023-02-18T00:46:54;6.68;;;1.02;;
54454;SDS011;40364;52.270;10.546;2023-02-18T00:49:21;9.20;;;1.00;;
54454;SDS011;40364;52.270;10.546;2023-02-18T00:51:48;5.00;;;0.90;;
54454;SDS011;40364;52.270;10.546;2023-02-18T00:54:14;14.25;;;1.23;;
54454;SDS011;40364;52.270;10.546;2023-02-18T00:56:41;5.63;;;0.75;;
54454;SDS011;40364;52.270;10.546;2023-02-18T00:59:07;7.97;;;3.40;;
54454;SDS011;40364;52.270;10.546;2023-02-18T01:01:36;9.15;;;1.23;;
54454;SDS011;40364;52.270;10.546;2023-02-18T01:04:02;10.90;;;1.10;;
54454;SDS011;40364;52.270;10.546;2023-02-18T01:06:29;7.30;;;0.88;;
54454;SDS011;40364;52.270;10.546;2023-02-18T01:08:56;6.78;;;1.08;;
54454;SDS011;40364;52.270;10.546;2023-02-18T01:11:22;11.07;;;1.42;;
54454;SDS011;40364;52.270;10.546;2023-02-18T01:13:49;5.63;;;1.30;;
54454;SDS011;40364;52.270;10.546;2023-02-18T01:16:17;8.43;;;0.93;;
54454;SDS011;40364;52.270;10.546;2023-02-18T01:18:45;7.88;;;1.05;;
54454;SDS011;40364;52.270;10.546;2023-02-18T01:21:12;8.90;;;0.77;;
54454;SDS011;40364;52.270;10.546;2023-02-18T01:23:39;11.23;;;1.52;;
54454;SDS011;40364;52.270;10.546;2023-02-18T01:26:07;9.80;;;1.15;;
54454;SDS011;40364;52.270;10.546;2023-02-18T01:28:34;4.90;;;0.70;;
54454;SDS011;40364;52.270;10.546;2023-02-18T01:31:03;9.50;;;1.48;;
54454;SDS011;40364;52.270;10.546;2023-02-18T01:33:32;4.50;;;1.20;;
54454;SDS011;40364;52.270;10.546;2023-02-18T01:36:00;9.30;;;1.02;;
54454;SDS011;40364;52.270;10.546;2023-02-18T01:38:27;5.93;;;1.40;;
54454;SDS011;40364;52.270;10.546;2023-02-18T01:40:54;8.65;;;1.58;;
54454;SDS011;40364;52.270;10.546;2023-02-18T01:43:21;6.18;;;0.80;;
54454;SDS011;40364;52.270;10.546;2023-02-18T01:45:50;8.80;;;0.90;;
54454;SDS011;40364;52.270;10.546;2023-02-18T01:48:30;6.20;;;1.38;;
54454;SDS011;40364;52.270;10.546;2023-02-18T01:51:02;8.63;;;1.15;;
54454;SDS011;40364;52.270;10.546;2023-02-18T01:53:35;6.53;;;1.48;;
54454;SDS011;40364;52.270;10.546;2023-02-18T01:56:05;7.60;;;1.20;;
54454;SDS011;40364;52.270;10.546;2023-02-18T01:58:36;7.15;;;0.80;;
54454;SDS011;40364;52.270;10.546;2023-02-18T02:01:03;6.70;;;0.75;;
54454;SDS011;40364;52.270;10.546;2023-02-18T02:03:31;2.55;;;0.73;;
54454;SDS011;40364;52.270;10.546;2023-02-18T02:05:58;5.10;;;0.85;;
54454;SDS011;40364;52.270;10.546;2023-02-18T02:08:26;6.63;;;1.08;;
54454;SDS011;40364;52.270;10.546;2023-02-18T02:11:01;7.55;;;0.98;;
54454;SDS011;40364;52.270;10.546;2023-02-18T02:13:41;5.57;;;0.50;;
54454;SDS011;40364;52.270;10.546;2023-02-18T02:16:18;8.45;;;0.95;;
54454;SDS011;40364;52.270;10.546;2023-02-18T02:18:54;8.45;;;1.45;;
54454;SDS011;40364;52.270;10.546;2023-02-18T02:21:44;6.38;;;0.90;;
54454;SDS011;40364;52.270;10.546;2023-02-18T02:24:37;4.53;;;0.90;;
54454;SDS011;40364;52.270;10.546;2023-02-18T02:27:24;5.10;;;1.00;;
54454;SDS011;40364;52.270;10.546;2023-02-18T02:33:04;6.70;;;1.35;;
54454;SDS011;40364;52.270;10.546;2023-02-18T02:35:53;4.72;;;0.70;;
54454;SDS011;40364;52.270;10.546;2023-02-18T02:38:27;1.42;;;0.55;;
54454;SDS011;40364;52.270;10.546;2023-02-18T02:41:01;4.47;;;0.90;;
54454;SDS011;40364;52.270;10.546;2023-02-18T02:43:38;6.63;;;0.75;;
54454;SDS011;40364;52.270;10.546;2023-02-18T02:46:16;3.80;;;1.13;;
54454;SDS011;40364;52.270;10.546;2023-02-18T02:48:47;7.30;;;0.55;;
54454;SDS011;40364;52.270;10.546;2023-02-18T02:51:23;15.38;;;1.55;;
54454;SDS011;40364;52.270;10.546;2023-02-18T02:53:55;5.75;;;0.90;;
54454;SDS011;40364;52.270;10.546;2023-02-18T02:56:35;6.40;;;1.00;;
54454;SDS011;40364;52.270;10.546;2023-02-18T02:59:03;3.22;;;0.63;;
54454;SDS011;40364;52.270;10.546;2023-02-18T03:01:35;3.50;;;0.50;;
54454;SDS011;40364;52.270;10.546;2023-02-18T03:04:22;11.02;;;1.17;;
54454;SDS011;40364;52.270;10.546;2023-02-18T03:07:03;7.45;;;0.93;;
54454;SDS011;40364;52.270;10.546;2023-02-18T03:10:01;9.98;;;0.98;;
54454;SDS011;40364;52.270;10.546;2023-02-18T03:12:43;6.80;;;0.68;;
54454;SDS011;40364;52.270;10.546;2023-02-18T03:15:20;5.60;;;0.77;;
54454;SDS011;40364;52.270;10.546;2023-02-18T03:17:50;2.55;;;0.57;;
54454;SDS011;40364;52.270;10.546;2023-02-18T03:20:24;5.43;;;0.80;;
54454;SDS011;40364;52.270;10.546;2023-02-18T03:22:54;4.15;;;0.60;;
54454;SDS011;40364;52.270;10.546;2023-02-18T03:25:23;5.15;;;0.70;;
54454;SDS011;40364;52.270;10.546;2023-02-18T03:27:51;7.68;;;1.67;;
54454;SDS011;40364;52.270;10.546;2023-02-18T03:30:21;7.18;;;0.82;;
54454;SDS011;40364;52.270;10.546;2023-02-18T03:32:52;3.22;;;0.93;;
54454;SDS011;40364;52.270;10.546;2023-02-18T03:35:22;7.45;;;1.13;;
54454;SDS011;40364;52.270;10.546;2023-02-18T03:37:51;5.75;;;1.38;;
54454;SDS011;40364;52.270;10.546;2023-02-18T03:40:25;7.70;;;0.93;;
54454;SDS011;40364;52.270;10.546;2023-02-18T03:42:52;7.65;;;1.17;;
54454;SDS011;40364;52.270;10.546;2023-02-18T03:45:19;8.68;;;1.25;;
54454;SDS011;40364;52.270;10.546;2023-02-18T03:47:46;6.45;;;0.70;;
54454;SDS011;40364;52.270;10.546;2023-02-18T03:50:13;6.47;;;1.80;;
54454;SDS011;40364;52.270;10.546;2023-02-18T03:52:39;6.43;;;1.20;;
54454;SDS011;40364;52.270;10.546;2023-02-18T03:55:08;9.95;;;1.00;;
54454;SDS011;40364;52.270;10.546;2023-02-18T03:57:35;10.80;;;1.83;;
54454;SDS011;40364;52.270;10.546;2023-02-18T04:00:02;5.43;;;1.30;;
54454;SDS011;40364;52.270;10.546;2023-02-18T04:02:30;8.93;;;1.05;;
54454;SDS011;40364;52.270;10.546;2023-02-18T04:04:57;3.38;;;1.52;;
54454;SDS011;40364;52.270;10.546;2023-02-18T04:07:25;8.38;;;1.75;;
54454;SDS011;40364;52.270;10.546;2023-02-18T04:09:51;11.63;;;1.27;;
54454;SDS011;40364;52.270;10.546;2023-02-18T04:12:19;6.28;;;2.00;;
54454;SDS011;40364;52.270;10.546;2023-02-18T04:14:46;10.02;;;1.40;;
54454;SDS011;40364;52.270;10.546;2023-02-18T04:17:13;3.65;;;1.08;;
54454;SDS011;40364;52.270;10.546;2023-02-18T04:19:39;2.25;;;0.80;;
54454;SDS011;40364;52.270;10.546;2023-02-18T04:22:06;3.53;;;0.70;;
54454;SDS011;40364;52.270;10.546;2023-02-18T04:24:32;10.57;;;1.52;;
54454;SDS011;40364;52.270;10.546;2023-02-18T04:26:59;7.15;;;1.13;;
54454;SDS011;40364;52.270;10.546;2023-02-18T04:29:27;9.82;;;1.60;;
54454;SDS011;40364;52.270;10.546;2023-02-18T04:31:54;9.80;;;1.15;;
54454;SDS011;40364;52.270;10.546;2023-02-18T04:34:20;12.68;;;1.27;;
54454;SDS011;40364;52.270;10.546;2023-02-18T04:36:47;12.90;;;1.40;;
54454;SDS011;40364;52.270;10.546;2023-02-18T04:39:14;5.13;;;1.30;;
54454;SDS011;40364;52.270;10.546;2023-02-18T04:41:40;8.75;;;1.13;;
54454;SDS011;40364;52.270;10.546;2023-02-18T04:44:07;6.38;;;1.40;;
54454;SDS011;40364;52.270;10.546;2023-02-18T04:46:35;7.38;;;2.03;;
54454;SDS011;40364;52.270;10.546;2023-02-18T04:49:02;13.15;;;1.70;;
54454;SDS011;40364;52.270;10.546;2023-02-18T04:51:28;5.75;;;1.45;;
54454;SDS011;40364;52.270;10.546;2023-02-18T04:53:55;9.35;;;2.33;;
54454;SDS011;40364;52.270;10.546;2023-02-18T04:56:22;4.78;;;1.60;;
54454;SDS011;40364;52.270;10.546;2023-02-18T04:58:48;7.80;;;1.58;;
54454;SDS011;40364;52.270;10.546;2023-02-18T05:01:15;10.20;;;2.17;;
54454;SDS011;40364;52.270;10.546;2023-02-18T05:03:43;7.78;;;2.10;;
54454;SDS011;40364;52.270;10.546;2023-02-18T05:06:11;11.95;;;2.38;;
54454;SDS011;40364;52.270;10.546;2023-02-18T05:08:37;16.48;;;2.83;;
54454;SDS011;40364;52.270;10.546;2023-02-18T05:11:05;16.08;;;3.35;;
54454;SDS011;40364;52.270;10.546;2023-02-18T05:13:32;8.23;;;2.80;;
54454;SDS011;40364;52.270;10.546;2023-02-18T05:15:59;10.55;;;2.92;;
54454;SDS011;40364;52.270;10.546;2023-02-18T05:18:25;14.43;;;3.50;;
54454;SDS011;40364;52.270;10.546;2023-02-18T05:20:54;15.13;;;3.20;;
54454;SDS011;40364;52.270;10.546;2023-02-18T05:23:20;10.60;;;3.30;;
54454;SDS011;40364;52.270;10.546;2023-02-18T05:25:47;13.52;;;3.47;;
54454;SDS011;40364;52.270;10.546;2023-02-18T05:28:13;12.48;;;3.53;;
54454;SDS011;40364;52.270;10.546;2023-02-18T05:30:40;12.35;;;4.25;;
54454;SDS011;40364;52.270;10.546;2023-02-18T05:33:07;15.32;;;4.80;;
54454;SDS011;40364;52.270;10.546;2023-02-18T05:35:33;18.40;;;5.63;;
54454;SDS011;40364;52.270;10.546;2023-02-18T05:38:01;21.10;;;5.80;;
54454;SDS011;40364;52.270;10.546;2023-02-18T05:40:28;16.27;;;5.53;;
54454;SDS011;40364;52.270;10.546;2023-02-18T05:42:55;22.55;;;5.90;;
54454;SDS011;40364;52.270;10.546;2023-02-18T05:45:22;22.05;;;6.32;;
54454;SDS011;40364;52.270;10.546;2023-02-18T05:47:48;22.60;;;7.22;;
54454;SDS011;40364;52.270;10.546;2023-02-18T05:50:15;29.27;;;6.95;;
54454;SDS011;40364;52.270;10.546;2023-02-18T05:52:42;22.10;;;6.53;;
54454;SDS011;40364;52.270;10.546;2023-02-18T05:55:10;20.15;;;6.75;;
54454;SDS011;40364;52.270;10.546;2023-02-18T05:57:37;25.08;;;6.78;;
54454;SDS011;40364;52.270;10.546;2023-02-18T06:00:04;27.70;;;9.20;;
54454;SDS011;40364;52.270;10.546;2023-02-18T06:02:34;21.65;;;7.13;;
54454;SDS011;40364;52.270;10.546;2023-02-18T06:05:00;24.23;;;8.23;;
54454;SDS011;40364;52.270;10.546;2023-02-18T06:07:27;29.98;;;8.43;;
54454;SDS011;40364;52.270;10.546;2023-02-18T06:09:54;33.42;;;9.15;;
54454;SDS011;40364;52.270;10.546;2023-02-18T06:12:22;23.98;;;8.60;;
54454;SDS011;40364;52.270;10.546;2023-02-18T06:14:48;26.38;;;8.93;;
54454;SDS011;40364;52.270;10.546;2023-02-18T06:17:15;22.23;;;8.55;;
54454;SDS011;40364;52.270;10.546;2023-02-18T06:19:42;25.15;;;9.48;;
54454;SDS011;40364;52.270;10.546;2023-02-18T06:22:10;24.65;;;8.57;;
54454;SDS011;40364;52.270;10.546;2023-02-18T06:24:37;27.60;;;9.25;;
54454;SDS011;40364;52.270;10.546;2023-02-18T06:27:03;22.20;;;8.07;;
54454;SDS011;40364;52.270;10.546;2023-02-18T06:29:31;29.17;;;9.73;;
54454;SDS011;40364;52.270;10.546;2023-02-18T06:32:00;28.80;;;10.10;;
54454;SDS011;40364;52.270;10.546;2023-02-18T06:34:26;26.13;;;9.20;;
54454;SDS011;40364;52.270;10.546;2023-02-18T06:36:53;25.25;;;9.15;;
54454;SDS011;40364;52.270;10.546;2023-02-18T06:39:20;26.42;;;9.70;;
54454;SDS011;40364;52.270;10.546;2023-02-18T06:41:46;22.30;;;9.75;;
54454;SDS011;40364;52.270;10.546;2023-02-18T06:44:13;25.83;;;9.23;;
54454;SDS011;40364;52.270;10.546;2023-02-18T06:46:42;28.30;;;10.73;;
54454;SDS011;40364;52.270;10.546;2023-02-18T06:49:09;29.73;;;10.98;;
54454;SDS011;40364;52.270;10.546;2023-02-18T06:51:36;30.88;;;10.88;;
54454;SDS011;40364;52.270;10.546;2023-02-18T06:54:02;28.90;;;9.80;;
54454;SDS011;40364;52.270;10.546;2023-02-18T06:56:30;22.55;;;8.75;;
54454;SDS011;40364;52.270;10.546;2023-02-18T06:58:57;21.67;;;9.43;;
54454;SDS011;40364;52.270;10.546;2023-02-18T07:01:24;30.55;;;10.88;;
54454;SDS011;40364;52.270;10.546;2023-02-18T07:03:52;28.50;;;9.77;;
54454;SDS011;40364;52.270;10.546;2023-02-18T07:06:18;28.50;;;10.07;;
54454;SDS011;40364;52.270;10.546;2023-02-18T07:08:45;28.08;;;9.80;;
54454;SDS011;40364;52.270;10.546;2023-02-18T07:11:12;26.45;;;10.25;;
54454;SDS011;40364;52.270;10.546;2023-02-18T07:13:38;22.23;;;9.25;;
54454;SDS011;40364;52.270;10.546;2023-02-18T07:16:05;27.30;;;10.55;;
54454;SDS011;40364;52.270;10.546;2023-02-18T07:18:32;28.23;;;10.55;;
54454;SDS011;40364;52.270;10.546;2023-02-18T07:21:00;37.70;;;9.73;;
54454;SDS011;40364;52.270;10.546;2023-02-18T07:23:26;28.90;;;11.50;;
54454;SDS011;40364;52.270;10.546;2023-02-18T07:26:01;31.13;;;11.27;;
54454;SDS011;40364;52.270;10.546;2023-02-18T07:28:28;31.00;;;11.15;;
54454;SDS011;40364;52.270;10.546;2023-02-18T07:30:55;26.85;;;10.90;;
54454;SDS011;40364;52.270;10.546;2023-02-18T07:33:23;28.00;;;11.35;;
54454;SDS011;40364;52.270;10.546;2023-02-18T07:35:51;31.10;;;11.95;;
54454;SDS011;40364;52.270;10.546;2023-02-18T07:38:21;35.22;;;12.20;;
54454;SDS011;40364;52.270;10.546;2023-02-18T07:40:48;32.55;;;11.63;;
54454;SDS011;40364;52.270;10.546;2023-02-18T07:43:14;31.98;;;11.95;;
54454;SDS011;40364;52.270;10.546;2023-02-18T07:45:41;28.90;;;11.15;;
54454;SDS011;40364;52.270;10.546;2023-02-18T07:48:08;30.10;;;10.90;;
54454;SDS011;40364;52.270;10.546;2023-02-18T07:50:37;33.25;;;12.20;;
54454;SDS011;40364;52.270;10.546;2023-02-18T07:53:06;31.88;;;12.05;;
54454;SDS011;40364;52.270;10.546;2023-02-18T07:55:35;34.15;;;11.98;;
54454;SDS011;40364;52.270;10.546;2023-02-18T07:58:17;32.10;;;11.70;;
54454;SDS011;40364;52.270;10.546;2023-02-18T08:00:45;26.92;;;10.68;;
54454;SDS011;40364;52.270;10.546;2023-02-18T08:03:13;27.83;;;9.65;;
54454;SDS011;40364;52.270;10.546;2023-02-18T08:05:40;27.90;;;10.35;;
54454;SDS011;40364;52.270;10.546;2023-02-18T08:08:07;27.40;;;11.90;;
54454;SDS011;40364;52.270;10.546;2023-02-18T08:10:38;29.52;;;11.23;;
54454;SDS011;40364;52.270;10.546;2023-02-18T08:13:05;24.15;;;10.68;;
54454;SDS011;40364;52.270;10.546;2023-02-18T08:15:32;30.38;;;12.25;;
54454;SDS011;40364;52.270;10.546;2023-02-18T08:17:59;30.30;;;10.43;;
54454;SDS011;40364;52.270;10.546;2023-02-18T08:20:25;28.63;;;10.77;;
54454;SDS011;40364;52.270;10.546;2023-02-18T08:22:52;25.45;;;9.73;;
54454;SDS011;40364;52.270;10.546;2023-02-18T08:25:19;23.17;;;9.18;;
54454;SDS011;40364;52.270;10.546;2023-02-18T08:27:47;24.52;;;9.88;;
54454;SDS011;40364;52.270;10.546;2023-02-18T08:30:14;24.58;;;9.02;;
54454;SDS011;40364;52.270;10.546;2023-02-18T08:32:40;22.50;;;9.02;;
54454;SDS011;40364;52.270;10.546;2023-02-18T08:35:09;19.50;;;7.82;;
54454;SDS011;40364;52.270;10.546;2023-02-18T08:37:36;31.40;;;8.63;;
54454;SDS011;40364;52.270;10.546;2023-02-18T08:43:03;23.98;;;8.52;;
54454;SDS011;40364;52.270;10.546;2023-02-18T08:45:30;23.67;;;9.35;;
54454;SDS011;40364;52.270;10.546;2023-02-18T08:47:57;19.88;;;8.13;;
54454;SDS011;40364;52.270;10.546;2023-02-18T08:50:24;24.13;;;8.20;;
54454;SDS011;40364;52.270;10.546;2023-02-18T08:52:51;22.85;;;9.00;;
54454;SDS011;40364;52.270;10.546;2023-02-18T08:55:18;19.85;;;8.43;;
54454;SDS011;40364;52.270;10.546;2023-02-18T08:57:45;20.35;;;7.88;;
54454;SDS011;40364;52.270;10.546;2023-02-18T09:00:14;24.17;;;8.27;;
54454;SDS011;40364;52.270;10.546;2023-02-18T09:02:42;19.00;;;6.85;;
54454;SDS011;40364;52.270;10.546;2023-02-18T09:05:09;17.85;;;6.28;;
54454;SDS011;40364;52.270;10.546;2023-02-18T09:07:35;18.73;;;6.70;;
54454;SDS011;40364;52.270;10.546;2023-02-18T09:10:03;15.82;;;6.32;;
54454;SDS011;40364;52.270;10.546;2023-02-18T09:12:30;14.18;;;5.32;;
54454;SDS011;40364;52.270;10.546;2023-02-18T09:14:57;14.55;;;6.22;;
54454;SDS011;40364;52.270;10.546;2023-02-18T09:17:25;12.68;;;4.38;;
54454;SDS011;40364;52.270;10.546;2023-02-18T09:19:52;11.70;;;4.47;;
54454;SDS011;40364;52.270;10.546;2023-02-18T09:22:19;13.52;;;4.57;;
54454;SDS011;40364;52.270;10.546;2023-02-18T09:24:46;9.32;;;3.83;;
54454;SDS011;40364;52.270;10.546;2023-02-18T09:27:12;9.52;;;4.00;;
54454;SDS011;40364;52.270;10.546;2023-02-18T09:29:39;7.90;;;2.83;;
54454;SDS011;40364;52.270;10.546;2023-02-18T09:32:06;6.57;;;2.35;;
54454;SDS011;40364;52.270;10.546;2023-02-18T09:34:36;3.03;;;1.33;;
54454;SDS011;40364;52.270;10.546;2023-02-18T09:37:03;2.22;;;1.52;;
54454;SDS011;40364;52.270;10.546;2023-02-18T09:39:30;4.38;;;1.27;;
54454;SDS011;40364;52.270;10.546;2023-02-18T09:41:57;1.30;;;0.80;;
54454;SDS011;40364;52.270;10.546;2023-02-18T09:44:26;1.67;;;0.90;;
54454;SDS011;40364;52.270;10.546;2023-02-18T09:46:58;1.35;;;0.77;;
54454;SDS011;40364;52.270;10.546;2023-02-18T09:49:28;1.05;;;0.60;;
54454;SDS011;40364;52.270;10.546;2023-02-18T09:52:06;1.38;;;0.80;;
54454;SDS011;40364;52.270;10.546;2023-02-18T09:54:38;1.20;;;0.70;;
54454;SDS011;40364;52.270;10.546;2023-02-18T09:57:05;0.60;;;0.50;;
54454;SDS011;40364;52.270;10.546;2023-02-18T09:59:41;2.72;;;0.60;;
54454;SDS011;40364;52.270;10.546;2023-02-18T10:02:09;2.03;;;0.30;;
54454;SDS011;40364;52.270;10.546;2023-02-18T10:04:42;0.75;;;0.43;;
54454;SDS011;40364;52.270;10.546;2023-02-18T10:07:18;2.30;;;0.50;;
54454;SDS011;40364;52.270;10.546;2023-02-18T10:09:48;0.40;;;0.40;;
54454;SDS011;40364;52.270;10.546;2023-02-18T10:12:19;0.70;;;0.60;;
54454;SDS011;40364;52.270;10.546;2023-02-18T10:14:48;0.95;;;0.43;;
54454;SDS011;40364;52.270;10.546;2023-02-18T10:17:17;0.47;;;0.40;;
54454;SDS011;40364;52.270;10.546;2023-02-18T10:19:46;1.08;;;0.68;;
54454;SDS011;40364;52.270;10.546;2023-02-18T10:22:16;1.40;;;0.60;;
54454;SDS011;40364;52.270;10.546;2023-02-18T10:24:45;1.35;;;0.60;;
54454;SDS011;40364;52.270;10.546;2023-02-18T10:27:16;0.85;;;0.45;;
54454;SDS011;40364;52.270;10.546;2023-02-18T10:29:46;0.60;;;0.50;;
54454;SDS011;40364;52.270;10.546;2023-02-18T10:32:15;0.30;;;0.30;;
54454;SDS011;40364;52.270;10.546;2023-02-18T10:34:47;0.90;;;0.57;;
54454;SDS011;40364;52.270;10.546;2023-02-18T10:37:25;1.42;;;0.88;;
54454;SDS011;40364;52.270;10.546;2023-02-18T10:40:03;1.45;;;0.70;;
54454;SDS011;40364;52.270;10.546;2023-02-18T10:42:39;1.27;;;0.98;;
54454;SDS011;40364;52.270;10.546;2023-02-18T10:45:18;1.45;;;1.00;;
54454;SDS011;40364;52.270;10.546;2023-02-18T10:47:55;1.20;;;1.00;;
54454;SDS011;40364;52.270;10.546;2023-02-18T10:50:33;1.77;;;1.00;;
54454;SDS011;40364;52.270;10.546;2023-02-18T10:53:09;2.08;;;0.93;;
54454;SDS011;40364;52.270;10.546;2023-02-18T11:00:53;1.35;;;1.08;;
54454;SDS011;40364;52.270;10.546;2023-02-18T11:03:20;2.10;;;0.90;;
54454;SDS011;40364;52.270;10.546;2023-02-18T11:05:49;2.47;;;1.33;;
54454;SDS011;40364;52.270;10.546;2023-02-18T11:08:20;1.73;;;1.13;;
54454;SDS011;40364;52.270;10.546;2023-02-18T11:10:49;3.67;;;1.20;;
54454;SDS011;40364;52.270;10.546;2023-02-18T11:13:16;3.35;;;1.77;;
54454;SDS011;40364;52.270;10.546;2023-02-18T11:15:55;1.40;;;0.97;;
54454;SDS011;40364;52.270;10.546;2023-02-18T11:18:26;1.83;;;1.50;;
54454;SDS011;40364;52.270;10.546;2023-02-18T11:20:58;1.48;;;1.10;;
54454;SDS011;40364;52.270;10.546;2023-02-18T11:23:28;2.22;;;1.33;;
54454;SDS011;40364;52.270;10.546;2023-02-18T11:25:56;2.15;;;1.40;;
54454;SDS011;40364;52.270;10.546;2023-02-18T11:28:34;1.73;;;1.15;;
54454;SDS011;40364;52.270;10.546;2023-02-18T11:31:18;2.75;;;1.58;;
54454;SDS011;40364;52.270;10.546;2023-02-18T11:33:49;2.42;;;1.52;;
54454;SDS011;40364;52.270;10.546;2023-02-18T11:36:20;2.03;;;1.58;;
54454;SDS011;40364;52.270;10.546;2023-02-18T11:38:51;2.15;;;1.52;;
54454;SDS011;40364;52.270;10.546;2023-02-18T11:41:21;2.10;;;1.45;;
54454;SDS011;40364;52.270;10.546;2023-02-18T11:43:55;2.70;;;1.90;;
54454;SDS011;40364;52.270;10.546;2023-02-18T11:46:24;5.70;;;2.60;;
54454;SDS011;40364;52.270;10.546;2023-02-18T11:48:52;2.95;;;2.00;;
54454;SDS011;40364;52.270;10.546;2023-02-18T11:51:20;2.63;;;2.05;;
54454;SDS011;40364;52.270;10.546;2023-02-18T11:56:53;3.40;;;2.05;;
54454;SDS011;40364;52.270;10.546;2023-02-18T11:59:22;2.17;;;1.70;;
54454;SDS011;40364;52.270;10.546;2023-02-18T12:01:49;3.15;;;2.33;;
54454;SDS011;40364;52.270;10.546;2023-02-18T12:04:20;2.72;;;2.10;;
54454;SDS011;40364;52.270;10.546;2023-02-18T12:06:56;2.22;;;1.63;;
54454;SDS011;40364;52.270;10.546;2023-02-18T12:09:34;2.70;;;1.50;;
54454;SDS011;40364;52.270;10.546;2023-02-18T12:12:05;2.38;;;1.60;;
54454;SDS011;40364;52.270;10.546;2023-02-18T12:14:36;1.88;;;1.33;;
54454;SDS011;40364;52.270;10.546;2023-02-18T12:20:21;2.45;;;1.70;;
54454;SDS011;40364;52.270;10.546;2023-02-18T12:23:06;2.08;;;1.35;;
54454;SDS011;40364;52.270;10.546;2023-02-18T12:25:41;2.45;;;1.75;;
54454;SDS011;40364;52.270;10.546;2023-02-18T12:28:20;2.45;;;1.02;;
54454;SDS011;40364;52.270;10.546;2023-02-18T12:31:04;1.45;;;1.23;;
54454;SDS011;40364;52.270;10.546;2023-02-18T12:33:47;3.33;;;1.92;;
54454;SDS011;40364;52.270;10.546;2023-02-18T12:36:32;1.75;;;1.30;;
54454;SDS011;40364;52.270;10.546;2023-02-18T12:39:11;2.22;;;1.50;;
54454;SDS011;40364;52.270;10.546;2023-02-18T12:41:57;2.45;;;1.67;;
54454;SDS011;40364;52.270;10.546;2023-02-18T12:44:35;2.35;;;1.50;;
54454;SDS011;40364;52.270;10.546;2023-02-18T12:50:26;2.50;;;1.45;;
54454;SDS011;40364;52.270;10.546;2023-02-18T12:53:06;1.30;;;0.98;;
54454;SDS011;40364;52.270;10.546;2023-02-18T12:55:50;2.97;;;1.23;;
54454;SDS011;40364;52.270;10.546;2023-02-18T12:58:33;1.95;;;1.40;;
54454;SDS011;40364;52.270;10.546;2023-02-18T13:01:27;2.05;;;1.27;;
54454;SDS011;40364;52.270;10.546;2023-02-18T13:04:12;2.38;;;1.33;;
54454;SDS011;40364;52.270;10.546;2023-02-18T13:07:06;3.30;;;1.40;;
54454;SDS011;40364;52.270;10.546;2023-02-18T13:10:11;1.63;;;1.10;;
54454;SDS011;40364;52.270;10.546;2023-02-18T13:13:03;2.95;;;1.38;;
54454;SDS011;40364;52.270;10.546;2023-02-18T13:15:38;2.05;;;1.60;;
54454;SDS011;40364;52.270;10.546;2023-02-18T13:18:09;2.08;;;1.30;;
54454;SDS011;40364;52.270;10.546;2023-02-18T13:20:41;1.67;;;1.00;;
54454;SDS011;40364;52.270;10.546;2023-02-18T13:23:12;1.50;;;1.20;;
54454;SDS011;40364;52.270;10.546;2023-02-18T13:25:43;3.50;;;0.90;;
54454;SDS011;40364;52.270;10.546;2023-02-18T13:28:14;2.10;;;1.08;;
54454;SDS011;40364;52.270;10.546;2023-02-18T13:30:58;1.88;;;1.27;;
54454;SDS011;40364;52.270;10.546;2023-02-18T13:33:39;1.77;;;1.02;;
54454;SDS011;40364;52.270;10.546;2023-02-18T13:36:15;2.25;;;1.10;;
54454;SDS011;40364;52.270;10.546;2023-02-18T13:38:57;1.00;;;0.75;;
54454;SDS011;40364;52.270;10.546;2023-02-18T13:41:28;1.48;;;0.85;;
54454;SDS011;40364;52.270;10.546;2023-02-18T13:44:00;2.03;;;1.30;;
54454;SDS011;40364;52.270;10.546;2023-02-18T13:46:35;1.40;;;0.90;;
54454;SDS011;40364;52.270;10.546;2023-02-18T13:49:13;1.55;;;0.82;;
54454;SDS011;40364;52.270;10.546;2023-02-18T13:51:44;0.85;;;0.80;;
54454;SDS011;40364;52.270;10.546;2023-02-18T13:54:15;1.52;;;0.98;;
54454;SDS011;40364;52.270;10.546;2023-02-18T13:56:49;2.45;;;1.10;;
54454;SDS011;40364;52.270;10.546;2023-02-18T13:59:21;1.00;;;0.80;;
54454;SDS011;40364;52.270;10.546;2023-02-18T14:01:54;1.70;;;1.00;;
54454;SDS011;40364;52.270;10.546;2023-02-18T14:07:31;2.20;;;1.23;;
54454;SDS011;40364;52.270;10.546;2023-02-18T14:10:27;1.88;;;0.98;;
54454;SDS011;40364;52.270;10.546;2023-02-18T14:16:04;1.40;;;1.10;;
54454;SDS011;40364;52.270;10.546;2023-02-18T14:18:36;1.42;;;0.93;;
54454;SDS011;40364;52.270;10.546;2023-02-18T14:21:22;1.83;;;0.80;;
54454;SDS011;40364;52.270;10.546;2023-02-18T14:24:02;2.58;;;1.40;;
54454;SDS011;40364;52.270;10.546;2023-02-18T14:26:32;4.63;;;1.90;;
54454;SDS011;40364;52.270;10.546;2023-02-18T14:29:04;1.50;;;1.10;;
54454;SDS011;40364;52.270;10.546;2023-02-18T14:31:35;1.42;;;1.23;;
54454;SDS011;40364;52.270;10.546;2023-02-18T14:40:37;2.83;;;1.48;;
54454;SDS011;40364;52.270;10.546;2023-02-18T14:43:16;3.50;;;1.70;;
54454;SDS011;40364;52.270;10.546;2023-02-18T14:46:08;2.45;;;1.83;;
54454;SDS011;40364;52.270;10.546;2023-02-18T14:48:50;2.90;;;1.60;;
54454;SDS011;40364;52.270;10.546;2023-02-18T14:51:32;5.13;;;1.95;;
54454;SDS011;40364;52.270;10.546;2023-02-18T14:54:03;6.07;;;1.42;;
54454;SDS011;40364;52.270;10.546;2023-02-18T14:56:32;2.83;;;1.40;;
54454;SDS011;40364;52.270;10.546;2023-02-18T14:59:04;4.75;;;1.80;;
54454;SDS011;40364;52.270;10.546;2023-02-18T15:01:32;3.80;;;2.00;;
54454;SDS011;40364;52.270;10.546;2023-02-18T15:04:01;6.90;;;2.50;;
54454;SDS011;40364;52.270;10.546;2023-02-18T15:06:30;2.35;;;1.85;;
54454;SDS011;40364;52.270;10.546;2023-02-18T15:09:00;3.67;;;2.30;;
54454;SDS011;40364;52.270;10.546;2023-02-18T15:11:38;2.58;;;1.73;;
54454;SDS011;40364;52.270;10.546;2023-02-18T15:14:09;4.18;;;1.83;;
54454;SDS011;40364;52.270;10.546;2023-02-18T15:16:39;2.88;;;1.88;;
54454;SDS011;40364;52.270;10.546;2023-02-18T15:19:10;4.13;;;2.47;;
54454;SDS011;40364;52.270;10.546;2023-02-18T15:21:41;3.33;;;2.08;;